sensor_id;sensor_type;location;lat;lon;timestamp;temperature;humidity
51215;DHT22;63849;47.546;19.254;2024-03-29T00:00:40;8.70;82.10
51215;DHT22;63849;47.546;19.254;2024-03-29T00:03:06;8.60;82.00
51215;DHT22;63849;47.546;19.254;2024-03-29T00:05:33;8.70;82.20
51215;DHT22;63849;47.546;19.254;2024-03-29T00:07:59;8.70;82.10
51215;DHT22;63849;47.546;19.254;2024-03-29T00:10:25;8.70;81.90
51215;DHT22;63849;47.546;19.254;2024-03-29T00:12:50;8.70;82.30
51215;DHT22;63849;47.546;19.254;2024-03-29T00:15:16;8.70;82.00
51215;DHT22;63849;47.546;19.254;2024-03-29T00:17:42;8.70;82.50
51215;DHT22;63849;47.546;19.254;2024-03-29T00:20:08;8.70;82.10
51215;DHT22;63849;47.546;19.254;2024-03-29T00:22:34;8.70;82.60
51215;DHT22;63849;47.546;19.254;2024-03-29T00:24:59;8.70;82.30
51215;DHT22;63849;47.546;19.254;2024-03-29T00:27:25;8.70;82.20
51215;DHT22;63849;47.546;19.254;2024-03-29T00:29:53;8.80;82.00
51215;DHT22;63849;47.546;19.254;2024-03-29T00:32:23;8.80;81.60
51215;DHT22;63849;47.546;19.254;2024-03-29T00:34:52;8.80;81.80
51215;DHT22;63849;47.546;19.254;2024-03-29T00:37:18;8.80;81.80
51215;DHT22;63849;47.546;19.254;2024-03-29T00:39:44;8.80;81.50
51215;DHT22;63849;47.546;19.254;2024-03-29T00:42:10;8.80;81.20
51215;DHT22;63849;47.546;19.254;2024-03-29T00:44:47;8.80;81.40
51215;DHT22;63849;47.546;19.254;2024-03-29T00:47:13;8.80;81.10
51215;DHT22;63849;47.546;19.254;2024-03-29T00:49:39;8.70;80.90
51215;DHT22;63849;47.546;19.254;2024-03-29T00:52:05;8.60;81.10
51215;DHT22;63849;47.546;19.254;2024-03-29T00:54:31;8.50;82.00
51215;DHT22;63849;47.546;19.254;2024-03-29T00:56:56;8.60;82.20
51215;DHT22;63849;47.546;19.254;2024-03-29T00:59:22;8.60;82.00
51215;DHT22;63849;47.546;19.254;2024-03-29T01:01:48;8.50;81.80
51215;DHT22;63849;47.546;19.254;2024-03-29T01:04:14;8.50;81.30
51215;DHT22;63849;47.546;19.254;2024-03-29T01:06:40;8.40;81.70
51215;DHT22;63849;47.546;19.254;2024-03-29T01:09:06;8.30;82.60
51215;DHT22;63849;47.546;19.254;2024-03-29T01:11:32;8.20;82.40
51215;DHT22;63849;47.546;19.254;2024-03-29T01:13:58;8.20;82.30
51215;DHT22;63849;47.546;19.254;2024-03-29T01:16:24;8.20;82.40
51215;DHT22;63849;47.546;19.254;2024-03-29T01:18:50;8.20;81.60
51215;DHT22;63849;47.546;19.254;2024-03-29T01:21:17;7.90;82.50
51215;DHT22;63849;47.546;19.254;2024-03-29T01:23:43;7.80;82.80
51215;DHT22;63849;47.546;19.254;2024-03-29T01:26:09;7.80;82.50
51215;DHT22;63849;47.546;19.254;2024-03-29T01:28:38;7.70;82.80
51215;DHT22;63849;47.546;19.254;2024-03-29T01:31:04;7.80;82.90
51215;DHT22;63849;47.546;19.254;2024-03-29T01:33:30;7.80;82.10
51215;DHT22;63849;47.546;19.254;2024-03-29T01:36:05;7.60;82.20
51215;DHT22;63849;47.546;19.254;2024-03-29T01:38:31;7.80;82.60
51215;DHT22;63849;47.546;19.254;2024-03-29T01:40:57;7.60;82.30
51215;DHT22;63849;47.546;19.254;2024-03-29T01:43:23;7.60;81.90
51215;DHT22;63849;47.546;19.254;2024-03-29T01:45:52;7.70;81.90
51215;DHT22;63849;47.546;19.254;2024-03-29T01:48:19;7.70;81.20
51215;DHT22;63849;47.546;19.254;2024-03-29T01:50:46;7.60;81.10
51215;DHT22;63849;47.546;19.254;2024-03-29T01:53:13;7.70;80.70
51215;DHT22;63849;47.546;19.254;2024-03-29T01:55:40;7.60;81.60
51215;DHT22;63849;47.546;19.254;2024-03-29T01:58:10;7.60;81.30
51215;DHT22;63849;47.546;19.254;2024-03-29T02:00:42;7.60;81.60
51215;DHT22;63849;47.546;19.254;2024-03-29T02:03:09;7.60;81.20
51215;DHT22;63849;47.546;19.254;2024-03-29T02:05:39;7.60;81.80
51215;DHT22;63849;47.546;19.254;2024-03-29T02:08:07;7.60;81.40
51215;DHT22;63849;47.546;19.254;2024-03-29T02:10:32;7.50;81.20
51215;DHT22;63849;47.546;19.254;2024-03-29T02:12:59;7.50;81.10
51215;DHT22;63849;47.546;19.254;2024-03-29T02:15:25;7.60;80.80
51215;DHT22;63849;47.546;19.254;2024-03-29T02:17:51;7.50;81.10
51215;DHT22;63849;47.546;19.254;2024-03-29T02:20:16;7.50;81.10
51215;DHT22;63849;47.546;19.254;2024-03-29T02:22:50;7.50;80.90
51215;DHT22;63849;47.546;19.254;2024-03-29T02:25:18;7.50;81.70
51215;DHT22;63849;47.546;19.254;2024-03-29T02:27:44;7.40;81.60
51215;DHT22;63849;47.546;19.254;2024-03-29T02:30:16;7.50;81.50
51215;DHT22;63849;47.546;19.254;2024-03-29T02:32:42;7.50;81.30
51215;DHT22;63849;47.546;19.254;2024-03-29T02:35:08;7.50;80.80
51215;DHT22;63849;47.546;19.254;2024-03-29T02:37:37;7.40;80.20
51215;DHT22;63849;47.546;19.254;2024-03-29T02:40:04;7.40;80.30
51215;DHT22;63849;47.546;19.254;2024-03-29T02:42:30;7.40;80.80
51215;DHT22;63849;47.546;19.254;2024-03-29T02:44:56;7.40;81.00
51215;DHT22;63849;47.546;19.254;2024-03-29T02:47:22;7.40;81.60
51215;DHT22;63849;47.546;19.254;2024-03-29T02:49:48;7.40;81.10
51215;DHT22;63849;47.546;19.254;2024-03-29T02:52:13;7.30;81.00
51215;DHT22;63849;47.546;19.254;2024-03-29T02:54:43;7.30;80.70
51215;DHT22;63849;47.546;19.254;2024-03-29T02:57:09;7.30;81.00
51215;DHT22;63849;47.546;19.254;2024-03-29T02:59:34;7.30;81.00
51215;DHT22;63849;47.546;19.254;2024-03-29T03:02:00;7.30;80.80
51215;DHT22;63849;47.546;19.254;2024-03-29T03:04:26;7.20;80.80
51215;DHT22;63849;47.546;19.254;2024-03-29T03:06:51;7.30;81.00
51215;DHT22;63849;47.546;19.254;2024-03-29T03:09:17;7.30;81.10
51215;DHT22;63849;47.546;19.254;2024-03-29T03:12:02;7.30;81.20
51215;DHT22;63849;47.546;19.254;2024-03-29T03:14:27;7.30;80.70
51215;DHT22;63849;47.546;19.254;2024-03-29T03:16:53;7.30;80.50
51215;DHT22;63849;47.546;19.254;2024-03-29T03:19:19;7.30;80.50
51215;DHT22;63849;47.546;19.254;2024-03-29T03:21:44;7.30;80.40
51215;DHT22;63849;47.546;19.254;2024-03-29T03:24:10;7.30;81.00
51215;DHT22;63849;47.546;19.254;2024-03-29T03:26:37;7.30;80.40
51215;DHT22;63849;47.546;19.254;2024-03-29T03:29:04;7.30;80.30
51215;DHT22;63849;47.546;19.254;2024-03-29T03:31:29;7.20;80.20
51215;DHT22;63849;47.546;19.254;2024-03-29T03:33:55;7.20;80.10
51215;DHT22;63849;47.546;19.254;2024-03-29T03:36:21;7.20;80.10
51215;DHT22;63849;47.546;19.254;2024-03-29T03:38:46;7.20;79.50
51215;DHT22;63849;47.546;19.254;2024-03-29T03:41:12;7.20;79.50
51215;DHT22;63849;47.546;19.254;2024-03-29T03:43:38;7.20;79.60
51215;DHT22;63849;47.546;19.254;2024-03-29T03:46:06;7.10;79.80
51215;DHT22;63849;47.546;19.254;2024-03-29T03:48:32;6.90;80.90
51215;DHT22;63849;47.546;19.254;2024-03-29T03:50:58;6.60;82.50
51215;DHT22;63849;47.546;19.254;2024-03-29T03:53:23;6.70;82.50
51215;DHT22;63849;47.546;19.254;2024-03-29T03:55:49;6.80;82.40
51215;DHT22;63849;47.546;19.254;2024-03-29T03:58:15;6.60;82.00
51215;DHT22;63849;47.546;19.254;2024-03-29T04:00:41;6.30;82.40
51215;DHT22;63849;47.546;19.254;2024-03-29T04:03:06;6.30;83.20
51215;DHT22;63849;47.546;19.254;2024-03-29T04:05:32;6.30;83.10
51215;DHT22;63849;47.546;19.254;2024-03-29T04:07:58;6.30;82.60
51215;DHT22;63849;47.546;19.254;2024-03-29T04:10:25;6.20;82.20
51215;DHT22;63849;47.546;19.254;2024-03-29T04:12:51;6.20;82.30
51215;DHT22;63849;47.546;19.254;2024-03-29T04:15:16;6.30;81.90
51215;DHT22;63849;47.546;19.254;2024-03-29T04:17:42;6.30;82.20
51215;DHT22;63849;47.546;19.254;2024-03-29T04:20:08;6.30;82.10
51215;DHT22;63849;47.546;19.254;2024-03-29T04:22:34;6.40;81.90
51215;DHT22;63849;47.546;19.254;2024-03-29T04:25:00;6.40;82.10
51215;DHT22;63849;47.546;19.254;2024-03-29T04:27:26;6.50;82.10
51215;DHT22;63849;47.546;19.254;2024-03-29T04:29:55;6.40;82.30
51215;DHT22;63849;47.546;19.254;2024-03-29T04:32:21;6.40;82.20
51215;DHT22;63849;47.546;19.254;2024-03-29T04:34:50;6.40;82.20
51215;DHT22;63849;47.546;19.254;2024-03-29T04:37:16;6.50;82.10
51215;DHT22;63849;47.546;19.254;2024-03-29T04:39:45;6.50;82.40
51215;DHT22;63849;47.546;19.254;2024-03-29T04:42:11;6.60;82.00
51215;DHT22;63849;47.546;19.254;2024-03-29T04:44:37;6.50;82.00
51215;DHT22;63849;47.546;19.254;2024-03-29T04:47:03;6.60;82.00
51215;DHT22;63849;47.546;19.254;2024-03-29T04:49:29;6.60;82.10
51215;DHT22;63849;47.546;19.254;2024-03-29T04:52:05;6.40;82.40
51215;DHT22;63849;47.546;19.254;2024-03-29T04:54:32;6.40;82.60
51215;DHT22;63849;47.546;19.254;2024-03-29T04:56:59;6.40;82.50
51215;DHT22;63849;47.546;19.254;2024-03-29T04:59:27;6.30;83.30
51215;DHT22;63849;47.546;19.254;2024-03-29T05:01:53;6.40;83.30
51215;DHT22;63849;47.546;19.254;2024-03-29T05:04:20;6.40;83.60
51215;DHT22;63849;47.546;19.254;2024-03-29T05:06:56;6.60;83.20
51215;DHT22;63849;47.546;19.254;2024-03-29T05:09:22;6.80;83.30
51215;DHT22;63849;47.546;19.254;2024-03-29T05:11:48;7.10;82.80
51215;DHT22;63849;47.546;19.254;2024-03-29T05:14:17;7.30;82.30
51215;DHT22;63849;47.546;19.254;2024-03-29T05:16:46;7.40;81.50
51215;DHT22;63849;47.546;19.254;2024-03-29T05:19:13;7.80;81.00
51215;DHT22;63849;47.546;19.254;2024-03-29T05:21:39;8.10;80.30
51215;DHT22;63849;47.546;19.254;2024-03-29T05:24:05;8.30;79.40
51215;DHT22;63849;47.546;19.254;2024-03-29T05:26:31;8.60;78.80
51215;DHT22;63849;47.546;19.254;2024-03-29T05:28:57;8.70;77.70
51215;DHT22;63849;47.546;19.254;2024-03-29T05:31:24;8.80;76.50
51215;DHT22;63849;47.546;19.254;2024-03-29T05:33:50;9.00;77.30
51215;DHT22;63849;47.546;19.254;2024-03-29T05:36:16;9.10;76.90
51215;DHT22;63849;47.546;19.254;2024-03-29T05:38:42;9.30;77.20
51215;DHT22;63849;47.546;19.254;2024-03-29T05:41:08;9.30;76.30
51215;DHT22;63849;47.546;19.254;2024-03-29T05:43:33;9.10;77.20
51215;DHT22;63849;47.546;19.254;2024-03-29T05:45:59;9.00;77.40
51215;DHT22;63849;47.546;19.254;2024-03-29T05:48:29;8.80;78.10
51215;DHT22;63849;47.546;19.254;2024-03-29T05:50:54;8.90;78.10
51215;DHT22;63849;47.546;19.254;2024-03-29T05:53:20;9.00;78.30
51215;DHT22;63849;47.546;19.254;2024-03-29T05:55:46;9.00;78.20
51215;DHT22;63849;47.546;19.254;2024-03-29T05:58:11;9.00;78.90
51215;DHT22;63849;47.546;19.254;2024-03-29T06:00:42;9.10;79.00
51215;DHT22;63849;47.546;19.254;2024-03-29T06:03:08;9.10;78.60
51215;DHT22;63849;47.546;19.254;2024-03-29T06:05:33;9.30;78.90
51215;DHT22;63849;47.546;19.254;2024-03-29T06:07:59;9.50;78.30
51215;DHT22;63849;47.546;19.254;2024-03-29T06:10:25;9.60;78.70
51215;DHT22;63849;47.546;19.254;2024-03-29T06:12:50;10.00;77.70
51215;DHT22;63849;47.546;19.254;2024-03-29T06:15:16;10.00;77.40
51215;DHT22;63849;47.546;19.254;2024-03-29T06:18:00;10.20;77.60
51215;DHT22;63849;47.546;19.254;2024-03-29T06:20:26;10.30;76.60
51215;DHT22;63849;47.546;19.254;2024-03-29T06:22:52;10.50;76.50
51215;DHT22;63849;47.546;19.254;2024-03-29T06:25:18;10.70;75.20
51215;DHT22;63849;47.546;19.254;2024-03-29T06:27:44;10.80;74.80
51215;DHT22;63849;47.546;19.254;2024-03-29T06:30:13;10.90;73.60
51215;DHT22;63849;47.546;19.254;2024-03-29T06:32:39;11.30;73.90
51215;DHT22;63849;47.546;19.254;2024-03-29T06:35:05;11.40;73.30
51215;DHT22;63849;47.546;19.254;2024-03-29T06:37:31;11.50;73.20
51215;DHT22;63849;47.546;19.254;2024-03-29T06:39:57;11.80;72.20
51215;DHT22;63849;47.546;19.254;2024-03-29T06:42:23;11.70;72.10
51215;DHT22;63849;47.546;19.254;2024-03-29T06:44:49;11.70;72.50
51215;DHT22;63849;47.546;19.254;2024-03-29T06:47:15;11.80;72.10
51215;DHT22;63849;47.546;19.254;2024-03-29T06:49:40;11.90;71.70
51215;DHT22;63849;47.546;19.254;2024-03-29T06:52:06;11.90;71.80
51215;DHT22;63849;47.546;19.254;2024-03-29T06:54:32;11.90;71.70
51215;DHT22;63849;47.546;19.254;2024-03-29T06:56:58;12.00;71.40
51215;DHT22;63849;47.546;19.254;2024-03-29T06:59:25;12.10;71.40
51215;DHT22;63849;47.546;19.254;2024-03-29T07:01:52;12.30;71.40
51215;DHT22;63849;47.546;19.254;2024-03-29T07:04:22;12.50;71.80
51215;DHT22;63849;47.546;19.254;2024-03-29T07:06:49;12.40;70.10
51215;DHT22;63849;47.546;19.254;2024-03-29T07:09:18;12.50;70.10
51215;DHT22;63849;47.546;19.254;2024-03-29T07:11:49;12.70;70.30
51215;DHT22;63849;47.546;19.254;2024-03-29T07:14:15;12.60;69.70
51215;DHT22;63849;47.546;19.254;2024-03-29T07:16:42;12.70;69.80
51215;DHT22;63849;47.546;19.254;2024-03-29T07:19:08;12.70;71.40
51215;DHT22;63849;47.546;19.254;2024-03-29T07:21:34;12.70;70.10
51215;DHT22;63849;47.546;19.254;2024-03-29T07:23:59;12.80;70.50
51215;DHT22;63849;47.546;19.254;2024-03-29T07:26:25;12.90;70.10
51215;DHT22;63849;47.546;19.254;2024-03-29T07:28:50;12.90;68.10
51215;DHT22;63849;47.546;19.254;2024-03-29T07:31:16;12.90;69.10
51215;DHT22;63849;47.546;19.254;2024-03-29T07:33:42;12.90;68.80
51215;DHT22;63849;47.546;19.254;2024-03-29T07:36:07;12.80;68.40
51215;DHT22;63849;47.546;19.254;2024-03-29T07:38:37;12.80;69.50
51215;DHT22;63849;47.546;19.254;2024-03-29T07:41:03;12.90;69.70
51215;DHT22;63849;47.546;19.254;2024-03-29T07:43:38;13.10;68.60
51215;DHT22;63849;47.546;19.254;2024-03-29T07:46:04;13.00;68.70
51215;DHT22;63849;47.546;19.254;2024-03-29T07:48:31;13.10;67.50
51215;DHT22;63849;47.546;19.254;2024-03-29T07:50:56;13.10;68.10
51215;DHT22;63849;47.546;19.254;2024-03-29T07:53:22;13.00;66.70
51215;DHT22;63849;47.546;19.254;2024-03-29T07:55:49;13.10;66.30
51215;DHT22;63849;47.546;19.254;2024-03-29T07:58:15;13.20;66.60
51215;DHT22;63849;47.546;19.254;2024-03-29T08:00:42;13.30;66.90
51215;DHT22;63849;47.546;19.254;2024-03-29T08:03:08;13.50;66.40
51215;DHT22;63849;47.546;19.254;2024-03-29T08:05:34;13.50;66.60
51215;DHT22;63849;47.546;19.254;2024-03-29T08:08:00;13.80;65.40
51215;DHT22;63849;47.546;19.254;2024-03-29T08:10:26;13.80;65.90
51215;DHT22;63849;47.546;19.254;2024-03-29T08:12:51;13.90;64.20
51215;DHT22;63849;47.546;19.254;2024-03-29T08:15:17;14.00;65.20
51215;DHT22;63849;47.546;19.254;2024-03-29T08:17:44;13.80;65.20
51215;DHT22;63849;47.546;19.254;2024-03-29T08:20:13;13.60;65.10
51215;DHT22;63849;47.546;19.254;2024-03-29T08:22:38;13.50;65.60
51215;DHT22;63849;47.546;19.254;2024-03-29T08:25:04;13.50;66.40
51215;DHT22;63849;47.546;19.254;2024-03-29T08:27:30;13.60;64.80
51215;DHT22;63849;47.546;19.254;2024-03-29T08:29:56;13.50;65.10
51215;DHT22;63849;47.546;19.254;2024-03-29T08:32:21;13.50;65.20
51215;DHT22;63849;47.546;19.254;2024-03-29T08:34:47;13.40;64.00
51215;DHT22;63849;47.546;19.254;2024-03-29T08:37:13;13.40;65.10
51215;DHT22;63849;47.546;19.254;2024-03-29T08:39:39;13.50;64.80
51215;DHT22;63849;47.546;19.254;2024-03-29T08:42:05;13.60;64.60
51215;DHT22;63849;47.546;19.254;2024-03-29T08:44:32;13.50;64.50
51215;DHT22;63849;47.546;19.254;2024-03-29T08:46:59;13.50;63.90
51215;DHT22;63849;47.546;19.254;2024-03-29T08:49:27;13.60;64.00
51215;DHT22;63849;47.546;19.254;2024-03-29T08:51:53;13.70;64.90
51215;DHT22;63849;47.546;19.254;2024-03-29T08:54:18;13.80;65.00
51215;DHT22;63849;47.546;19.254;2024-03-29T08:56:44;13.90;63.20
51215;DHT22;63849;47.546;19.254;2024-03-29T08:59:10;13.90;63.90
51215;DHT22;63849;47.546;19.254;2024-03-29T09:01:41;13.90;64.90
51215;DHT22;63849;47.546;19.254;2024-03-29T09:04:06;14.00;63.60
51215;DHT22;63849;47.546;19.254;2024-03-29T09:06:35;14.10;62.10
51215;DHT22;63849;47.546;19.254;2024-03-29T09:09:01;14.10;60.60
51215;DHT22;63849;47.546;19.254;2024-03-29T09:11:28;14.20;60.70
51215;DHT22;63849;47.546;19.254;2024-03-29T09:13:54;14.30;62.20
51215;DHT22;63849;47.546;19.254;2024-03-29T09:16:22;14.40;59.60
51215;DHT22;63849;47.546;19.254;2024-03-29T09:18:47;14.60;58.70
51215;DHT22;63849;47.546;19.254;2024-03-29T09:21:13;14.70;58.30
51215;DHT22;63849;47.546;19.254;2024-03-29T09:23:39;14.70;58.60
51215;DHT22;63849;47.546;19.254;2024-03-29T09:26:07;14.80;59.80
51215;DHT22;63849;47.546;19.254;2024-03-29T09:28:33;14.90;57.80
51215;DHT22;63849;47.546;19.254;2024-03-29T09:31:00;14.90;58.70
51215;DHT22;63849;47.546;19.254;2024-03-29T09:33:26;15.10;58.90
51215;DHT22;63849;47.546;19.254;2024-03-29T09:35:52;15.30;57.90
51215;DHT22;63849;47.546;19.254;2024-03-29T09:38:19;15.50;57.60
51215;DHT22;63849;47.546;19.254;2024-03-29T09:40:45;15.60;54.60
51215;DHT22;63849;47.546;19.254;2024-03-29T09:43:13;15.60;54.60
51215;DHT22;63849;47.546;19.254;2024-03-29T09:45:40;15.50;51.90
51215;DHT22;63849;47.546;19.254;2024-03-29T09:48:08;15.60;52.90
51215;DHT22;63849;47.546;19.254;2024-03-29T09:50:37;15.70;53.70
51215;DHT22;63849;47.546;19.254;2024-03-29T09:53:06;15.70;53.80
51215;DHT22;63849;47.546;19.254;2024-03-29T09:55:33;15.80;53.10
51215;DHT22;63849;47.546;19.254;2024-03-29T09:58:01;15.80;52.80
51215;DHT22;63849;47.546;19.254;2024-03-29T10:00:28;15.90;54.20
51215;DHT22;63849;47.546;19.254;2024-03-29T10:02:56;15.90;52.60
51215;DHT22;63849;47.546;19.254;2024-03-29T10:05:26;16.00;51.90
51215;DHT22;63849;47.546;19.254;2024-03-29T10:07:53;16.10;52.40
51215;DHT22;63849;47.546;19.254;2024-03-29T10:10:19;16.20;52.60
51215;DHT22;63849;47.546;19.254;2024-03-29T10:12:45;16.30;50.30
51215;DHT22;63849;47.546;19.254;2024-03-29T10:15:10;16.40;50.90
51215;DHT22;63849;47.546;19.254;2024-03-29T10:17:49;16.40;49.40
51215;DHT22;63849;47.546;19.254;2024-03-29T10:20:19;16.50;49.80
51215;DHT22;63849;47.546;19.254;2024-03-29T10:22:45;16.50;49.90
51215;DHT22;63849;47.546;19.254;2024-03-29T10:25:13;16.40;48.00
51215;DHT22;63849;47.546;19.254;2024-03-29T10:27:39;16.30;50.50
51215;DHT22;63849;47.546;19.254;2024-03-29T10:30:07;16.20;51.50
51215;DHT22;63849;47.546;19.254;2024-03-29T10:32:43;16.30;52.30
51215;DHT22;63849;47.546;19.254;2024-03-29T10:35:09;16.30;52.00
51215;DHT22;63849;47.546;19.254;2024-03-29T10:37:37;16.50;51.10
51215;DHT22;63849;47.546;19.254;2024-03-29T10:40:09;16.40;51.10
51215;DHT22;63849;47.546;19.254;2024-03-29T10:42:37;16.50;51.60
51215;DHT22;63849;47.546;19.254;2024-03-29T10:45:06;16.50;51.50
51215;DHT22;63849;47.546;19.254;2024-03-29T10:47:32;16.50;50.60
51215;DHT22;63849;47.546;19.254;2024-03-29T10:49:59;16.60;52.00
51215;DHT22;63849;47.546;19.254;2024-03-29T10:52:25;16.70;52.50
51215;DHT22;63849;47.546;19.254;2024-03-29T10:54:52;16.80;52.40
51215;DHT22;63849;47.546;19.254;2024-03-29T10:57:25;16.80;53.70
51215;DHT22;63849;47.546;19.254;2024-03-29T11:02:31;16.90;52.70
51215;DHT22;63849;47.546;19.254;2024-03-29T11:05:01;16.80;53.40
51215;DHT22;63849;47.546;19.254;2024-03-29T11:07:34;16.80;54.00
51215;DHT22;63849;47.546;19.254;2024-03-29T11:10:05;16.80;55.20
51215;DHT22;63849;47.546;19.254;2024-03-29T11:12:39;16.80;55.90
51215;DHT22;63849;47.546;19.254;2024-03-29T11:15:12;16.90;54.60
51215;DHT22;63849;47.546;19.254;2024-03-29T11:17:42;16.70;54.70
51215;DHT22;63849;47.546;19.254;2024-03-29T11:20:08;16.60;56.50
51215;DHT22;63849;47.546;19.254;2024-03-29T11:22:36;16.60;56.50
51215;DHT22;63849;47.546;19.254;2024-03-29T11:25:01;16.80;57.30
51215;DHT22;63849;47.546;19.254;2024-03-29T11:27:29;16.70;56.30
51215;DHT22;63849;47.546;19.254;2024-03-29T11:29:55;16.70;57.30
51215;DHT22;63849;47.546;19.254;2024-03-29T11:32:37;16.70;56.00
51215;DHT22;63849;47.546;19.254;2024-03-29T11:35:04;16.80;57.00
51215;DHT22;63849;47.546;19.254;2024-03-29T11:37:31;16.80;58.10
51215;DHT22;63849;47.546;19.254;2024-03-29T11:39:59;16.90;57.90
51215;DHT22;63849;47.546;19.254;2024-03-29T11:42:46;16.80;57.60
51215;DHT22;63849;47.546;19.254;2024-03-29T11:45:12;16.90;59.10
51215;DHT22;63849;47.546;19.254;2024-03-29T11:47:40;16.90;58.70
51215;DHT22;63849;47.546;19.254;2024-03-29T11:50:07;16.90;59.30
51215;DHT22;63849;47.546;19.254;2024-03-29T11:52:33;16.80;59.10
51215;DHT22;63849;47.546;19.254;2024-03-29T11:54:59;16.70;60.80
51215;DHT22;63849;47.546;19.254;2024-03-29T11:57:25;16.80;60.30
51215;DHT22;63849;47.546;19.254;2024-03-29T11:59:51;16.90;60.10
51215;DHT22;63849;47.546;19.254;2024-03-29T12:02:17;17.20;60.00
51215;DHT22;63849;47.546;19.254;2024-03-29T12:04:42;17.30;59.50
51215;DHT22;63849;47.546;19.254;2024-03-29T12:07:08;17.40;60.00
51215;DHT22;63849;47.546;19.254;2024-03-29T12:09:34;17.40;60.30
51215;DHT22;63849;47.546;19.254;2024-03-29T12:12:00;17.50;59.50
51215;DHT22;63849;47.546;19.254;2024-03-29T12:14:32;17.70;60.10
51215;DHT22;63849;47.546;19.254;2024-03-29T12:17:01;17.70;59.30
51215;DHT22;63849;47.546;19.254;2024-03-29T12:19:27;17.50;59.20
51215;DHT22;63849;47.546;19.254;2024-03-29T12:21:53;17.40;59.70
51215;DHT22;63849;47.546;19.254;2024-03-29T12:24:20;17.30;60.30
51215;DHT22;63849;47.546;19.254;2024-03-29T12:26:48;17.10;60.60
51215;DHT22;63849;47.546;19.254;2024-03-29T12:29:15;17.20;60.50
51215;DHT22;63849;47.546;19.254;2024-03-29T12:31:41;17.20;60.30
51215;DHT22;63849;47.546;19.254;2024-03-29T12:34:07;17.00;61.60
51215;DHT22;63849;47.546;19.254;2024-03-29T12:36:33;16.90;62.20
51215;DHT22;63849;47.546;19.254;2024-03-29T12:38:59;16.80;61.80
51215;DHT22;63849;47.546;19.254;2024-03-29T12:41:29;16.70;62.40
51215;DHT22;63849;47.546;19.254;2024-03-29T12:43:55;16.80;62.80
51215;DHT22;63849;47.546;19.254;2024-03-29T12:46:21;16.70;63.40
51215;DHT22;63849;47.546;19.254;2024-03-29T12:48:47;16.90;63.40
51215;DHT22;63849;47.546;19.254;2024-03-29T12:51:12;16.90;63.00
51215;DHT22;63849;47.546;19.254;2024-03-29T12:53:39;17.00;63.20
51215;DHT22;63849;47.546;19.254;2024-03-29T12:56:05;17.10;63.40
51215;DHT22;63849;47.546;19.254;2024-03-29T12:58:31;17.00;63.30
51215;DHT22;63849;47.546;19.254;2024-03-29T13:00:56;17.10;62.50
51215;DHT22;63849;47.546;19.254;2024-03-29T13:03:23;17.20;62.60
51215;DHT22;63849;47.546;19.254;2024-03-29T13:05:49;17.00;63.30
51215;DHT22;63849;47.546;19.254;2024-03-29T13:08:14;16.90;63.70
51215;DHT22;63849;47.546;19.254;2024-03-29T13:10:44;16.90;64.70
51215;DHT22;63849;47.546;19.254;2024-03-29T13:13:10;16.80;64.00
51215;DHT22;63849;47.546;19.254;2024-03-29T13:15:38;16.80;63.00
51215;DHT22;63849;47.546;19.254;2024-03-29T13:18:05;16.80;63.40
51215;DHT22;63849;47.546;19.254;2024-03-29T13:20:32;16.80;63.20
51215;DHT22;63849;47.546;19.254;2024-03-29T13:22:59;16.80;63.70
51215;DHT22;63849;47.546;19.254;2024-03-29T13:25:25;16.80;63.90
51215;DHT22;63849;47.546;19.254;2024-03-29T13:27:52;16.80;64.10
51215;DHT22;63849;47.546;19.254;2024-03-29T13:30:25;16.80;63.90
51215;DHT22;63849;47.546;19.254;2024-03-29T13:32:52;16.80;64.00
51215;DHT22;63849;47.546;19.254;2024-03-29T13:35:18;16.70;64.30
51215;DHT22;63849;47.546;19.254;2024-03-29T13:37:47;16.70;63.90
51215;DHT22;63849;47.546;19.254;2024-03-29T13:40:14;16.70;63.80
51215;DHT22;63849;47.546;19.254;2024-03-29T13:42:40;16.70;64.40
51215;DHT22;63849;47.546;19.254;2024-03-29T13:45:07;16.70;64.00
51215;DHT22;63849;47.546;19.254;2024-03-29T13:47:37;16.70;64.90
51215;DHT22;63849;47.546;19.254;2024-03-29T13:50:04;16.70;64.10
51215;DHT22;63849;47.546;19.254;2024-03-29T13:52:30;16.80;64.20
51215;DHT22;63849;47.546;19.254;2024-03-29T13:54:56;16.90;64.70
51215;DHT22;63849;47.546;19.254;2024-03-29T13:57:21;17.10;64.50
51215;DHT22;63849;47.546;19.254;2024-03-29T13:59:47;17.60;64.50
51215;DHT22;63849;47.546;19.254;2024-03-29T14:02:15;17.80;63.40
51215;DHT22;63849;47.546;19.254;2024-03-29T14:04:45;18.10;63.30
51215;DHT22;63849;47.546;19.254;2024-03-29T14:07:11;18.10;61.70
51215;DHT22;63849;47.546;19.254;2024-03-29T14:09:39;18.00;62.10
51215;DHT22;63849;47.546;19.254;2024-03-29T14:12:05;18.20;62.40
51215;DHT22;63849;47.546;19.254;2024-03-29T14:14:31;18.40;61.00
51215;DHT22;63849;47.546;19.254;2024-03-29T14:16:57;18.40;61.20
51215;DHT22;63849;47.546;19.254;2024-03-29T14:19:23;18.40;61.60
51215;DHT22;63849;47.546;19.254;2024-03-29T14:21:50;18.40;61.00
51215;DHT22;63849;47.546;19.254;2024-03-29T14:24:15;18.30;62.10
51215;DHT22;63849;47.546;19.254;2024-03-29T14:26:43;18.10;61.70
51215;DHT22;63849;47.546;19.254;2024-03-29T14:29:09;18.00;62.30
51215;DHT22;63849;47.546;19.254;2024-03-29T14:31:37;18.00;62.00
51215;DHT22;63849;47.546;19.254;2024-03-29T14:34:02;17.90;62.40
51215;DHT22;63849;47.546;19.254;2024-03-29T14:36:28;17.80;63.60
51215;DHT22;63849;47.546;19.254;2024-03-29T14:38:58;17.90;63.60
51215;DHT22;63849;47.546;19.254;2024-03-29T14:41:25;17.90;63.40
51215;DHT22;63849;47.546;19.254;2024-03-29T14:43:52;18.00;63.80
51215;DHT22;63849;47.546;19.254;2024-03-29T14:46:18;18.30;62.70
51215;DHT22;63849;47.546;19.254;2024-03-29T14:48:46;18.40;62.60
51215;DHT22;63849;47.546;19.254;2024-03-29T14:51:12;18.40;62.00
51215;DHT22;63849;47.546;19.254;2024-03-29T14:53:38;18.40;62.00
51215;DHT22;63849;47.546;19.254;2024-03-29T14:56:03;18.40;62.70
51215;DHT22;63849;47.546;19.254;2024-03-29T14:58:29;18.40;62.70
51215;DHT22;63849;47.546;19.254;2024-03-29T15:00:56;18.50;62.80
51215;DHT22;63849;47.546;19.254;2024-03-29T15:03:22;18.60;62.00
51215;DHT22;63849;47.546;19.254;2024-03-29T15:05:49;18.60;62.20
51215;DHT22;63849;47.546;19.254;2024-03-29T15:08:15;18.60;61.40
51215;DHT22;63849;47.546;19.254;2024-03-29T15:10:43;18.80;61.30
51215;DHT22;63849;47.546;19.254;2024-03-29T15:13:09;18.60;60.90
51215;DHT22;63849;47.546;19.254;2024-03-29T15:15:35;18.50;61.80
51215;DHT22;63849;47.546;19.254;2024-03-29T15:18:05;18.30;61.90
51215;DHT22;63849;47.546;19.254;2024-03-29T15:20:32;18.20;62.00
51215;DHT22;63849;47.546;19.254;2024-03-29T15:22:58;18.00;62.80